Time;durP1;ratioP1;P1;durP2;ratioP2;P2;SDS_P1;SDS_P2;PMS_P1;PMS_P2;Temp;Humidity;BMP_temperature;BMP_pressure;BME280_temperature;BME280_humidity;BME280_pressure;Samples;Min_cycle;Max_cycle;Signal;HPM_P1;HPM_P2
2022/03/05 00:02:13;;;;;;;;;56.50;40.75;;;;;9.87;74.33;101638.31;5023347;28;45415;-66
2022/03/05 00:04:39;;;;;;;;;55.00;43.00;;;;;9.81;74.21;101615.25;5021724;28;45476;-66
2022/03/05 00:07:04;;;;;;;;;56.25;42.25;;;;;9.91;74.05;101621.69;5023548;28;45340;-66
2022/03/05 00:09:30;;;;;;;;;57.00;43.25;;;;;9.92;74.29;101633.41;5023679;28;45628;-66
2022/03/05 00:11:55;;;;;;;;;52.50;41.00;;;;;9.82;74.36;101616.13;5023604;28;45409;-66
2022/03/05 00:14:20;;;;;;;;;46.50;34.00;;;;;9.95;73.93;101631.31;5023984;28;45328;-67
2022/03/05 00:16:46;;;;;;;;;51.75;41.75;;;;;9.93;73.96;101624.28;5024519;28;45478;-67
2022/03/05 00:19:11;;;;;;;;;58.75;46.50;;;;;9.97;73.87;101632.06;5024608;28;45291;-67
2022/03/05 00:21:36;;;;;;;;;61.25;47.00;;;;;9.91;73.77;101635.25;5022862;28;48011;-66
2022/03/05 00:24:02;;;;;;;;;50.50;39.50;;;;;9.86;74.29;101629.34;5024040;28;45326;-67
2022/03/05 00:26:27;;;;;;;;;55.75;43.25;;;;;9.87;74.26;101624.75;5022532;28;45312;-66
2022/03/05 00:28:53;;;;;;;;;56.00;44.50;;;;;9.87;74.55;101625.63;5023769;28;45270;-66
2022/03/05 00:31:18;;;;;;;;;58.50;43.75;;;;;9.91;74.22;101637.97;5022756;28;48130;-67
2022/03/05 00:33:44;;;;;;;;;53.00;41.25;;;;;9.92;74.58;101626.13;5022477;28;45463;-66
2022/03/05 00:36:09;;;;;;;;;55.50;41.50;;;;;9.98;73.62;101633.78;5024333;28;45474;-66
2022/03/05 00:38:35;;;;;;;;;61.25;50.75;;;;;9.97;73.79;101623.91;5024356;28;45157;-66
2022/03/05 00:41:00;;;;;;;;;67.75;52.75;;;;;9.98;73.81;101625.63;5023777;28;45529;-67
2022/03/05 00:43:25;;;;;;;;;73.25;53.50;;;;;9.94;74.35;101626.84;5023774;28;45260;-66
2022/03/05 00:45:51;;;;;;;;;79.75;58.00;;;;;9.98;74.13;101633.78;5024182;28;45323;-67
2022/03/05 00:48:16;;;;;;;;;81.00;57.50;;;;;9.99;74.29;101635.50;5024155;28;45481;-66
2022/03/05 00:50:42;;;;;;;;;78.25;59.00;;;;;9.94;74.06;101632.28;5023774;28;45328;-66
2022/03/05 00:53:10;;;;;;;;;79.00;59.25;;;;;9.94;74.05;101628.69;5022203;28;45767;-66
2022/03/05 00:55:36;;;;;;;;;71.25;54.75;;;;;9.89;74.42;101623.66;5022441;28;45471;-66
2022/03/05 00:58:02;;;;;;;;;75.50;59.00;;;;;9.87;74.41;101624.75;5024096;28;45327;-66
2022/03/05 01:00:28;;;;;;;;;74.00;58.00;;;;;9.97;74.30;101632.06;5023354;28;45528;-66
2022/03/05 01:02:53;;;;;;;;;67.00;52.50;;;;;9.96;74.17;101619.47;5023744;28;45383;-66
2022/03/05 01:05:18;;;;;;;;;65.75;50.50;;;;;10.00;74.14;101620.09;5023717;28;45267;-67
2022/03/05 01:07:44;;;;;;;;;59.75;46.00;;;;;10.00;74.43;101620.97;5022702;28;45239;-67
2022/03/05 01:10:09;;;;;;;;;62.75;47.75;;;;;10.09;74.01;101617.47;5023645;28;45224;-67
2022/03/05 01:12:35;;;;;;;;;56.75;47.25;;;;;10.13;73.55;101612.69;5023170;28;45664;-67
2022/03/05 01:15:00;;;;;;;;;57.00;44.25;;;;;10.14;73.53;101619.84;5022273;28;45245;-66
2022/03/05 01:17:26;;;;;;;;;64.00;46.75;;;;;10.05;73.32;101620.56;5022601;28;45196;-67
2022/03/05 01:19:51;;;;;;;;;51.25;41.75;;;;;9.99;74.12;101613.78;5018840;28;46840;-67
2022/03/05 01:22:17;;;;;;;;;55.25;42.00;;;;;10.02;73.77;101612.66;5015828;28;45342;-67
2022/03/05 01:24:42;;;;;;;;;48.75;38.50;;;;;10.11;73.46;101618.22;5023365;28;45293;-66
2022/03/05 01:27:08;;;;;;;;;53.75;38.75;;;;;10.19;73.19;101619.47;5023413;28;45398;-67
2022/03/05 01:29:33;;;;;;;;;53.00;39.50;;;;;10.30;73.09;101614.06;5023112;28;46545;-66
2022/03/05 01:31:59;;;;;;;;;57.50;40.50;;;;;10.37;73.01;101618.00;5022007;28;45341;-67
2022/03/05 01:34:24;;;;;;;;;49.25;38.50;;;;;10.40;72.49;101615.00;5023220;28;45787;-67
2022/03/05 01:36:49;;;;;;;;;55.25;43.50;;;;;10.36;72.18;101614.41;5022252;28;45328;-67
2022/03/05 01:39:16;;;;;;;;;47.50;37.50;;;;;10.23;72.21;101616.38;5022974;28;45384;-67
2022/03/05 01:41:44;;;;;;;;;54.50;44.25;;;;;10.00;72.45;101612.81;5021663;28;45328;-67
2022/03/05 01:44:09;;;;;;;;;53.25;40.50;;;;;9.99;72.56;101618.34;5023015;28;45489;-66
2022/03/05 01:46:39;;;;;;;;;57.50;44.00;;;;;10.01;72.39;101611.78;5022041;28;45335;-67
2022/03/05 01:49:07;;;;;;;;;56.75;40.25;;;;;10.10;72.56;101616.50;5022730;28;46540;-67
2022/03/05 01:51:33;;;;;;;;;54.50;40.50;;;;;10.18;72.09;101624.06;5022919;28;45276;-67
2022/03/05 01:53:58;;;;;;;;;55.75;44.25;;;;;10.19;72.65;101624.91;5021622;28;45382;-67
2022/03/05 01:56:25;;;;;;;;;56.00;42.50;;;;;10.15;71.80;101616.97;5023087;28;45575;-67
2022/03/05 01:58:51;;;;;;;;;53.00;43.25;;;;;10.04;71.79;101621.56;5009528;28;45454;-67
2022/03/05 02:01:21;;;;;;;;;51.50;39.75;;;;;9.96;72.18;101618.59;5022942;28;45280;-67
2022/03/05 02:03:46;;;;;;;;;57.75;44.50;;;;;9.96;72.06;101619.47;5021461;28;45330;-67
2022/03/05 02:06:12;;;;;;;;;48.50;38.00;;;;;9.85;72.32;101615.88;5022829;28;45297;-67
2022/03/05 02:08:37;;;;;;;;;53.00;41.75;;;;;9.76;72.32;101622.91;5023012;28;46459;-68
2022/03/05 02:11:02;;;;;;;;;43.00;37.50;;;;;9.70;72.41;101621.56;5022453;28;45355;-67
2022/03/05 02:13:28;;;;;;;;;50.25;40.50;;;;;9.63;72.24;101614.88;5021348;28;45380;-67
2022/03/05 02:15:57;;;;;;;;;50.50;38.75;;;;;9.61;72.95;101614.13;5023213;28;45298;-67
2022/03/05 02:18:23;;;;;;;;;53.75;39.75;;;;;9.58;72.96;101613.50;5022319;28;45719;-67
2022/03/05 02:20:52;;;;;;;;;52.25;42.00;;;;;9.63;72.69;101620.31;5021246;28;45572;-67
2022/03/05 02:23:18;;;;;;;;;49.75;39.00;;;;;9.68;72.61;101606.38;5022802;28;45301;-67
2022/03/05 02:25:55;;;;;;;;;48.00;40.00;;;;;9.78;72.17;101615.53;5022575;28;45299;-67
2022/03/05 02:28:22;;;;;;;;;45.25;37.75;;;;;9.80;72.12;101610.81;5020984;28;46936;-67
2022/03/05 02:30:47;;;;;;;;;54.25;40.00;;;;;9.83;72.48;101610.56;5021007;28;45327;-67
2022/03/05 02:33:14;;;;;;;;;50.25;38.75;;;;;9.76;72.70;101618.34;5023589;28;45404;-67
2022/03/05 02:35:39;;;;;;;;;49.25;38.00;;;;;9.84;73.54;101614.16;5026392;28;45505;-68
2022/03/05 02:38:04;;;;;;;;;54.75;44.00;;;;;9.88;72.45;101621.06;5025833;28;45320;-67
2022/03/05 02:40:30;;;;;;;;;53.50;38.50;;;;;9.85;73.18;101616.75;5024291;28;45332;-67
2022/03/05 02:42:55;;;;;;;;;50.50;39.00;;;;;9.90;72.40;101614.53;5026197;28;45435;-67
2022/03/05 02:45:21;;;;;;;;;49.00;39.00;;;;;9.69;73.18;101605.38;5024917;28;45725;-67
2022/03/05 02:47:46;;;;;;;;;50.75;41.75;;;;;9.82;73.33;101606.13;5024631;28;47627;-67
2022/03/05 02:50:12;;;;;;;;;44.75;37.75;;;;;9.80;72.65;101601.81;5025687;28;45263;-67
2022/03/05 02:52:40;;;;;;;;;51.75;38.75;;;;;9.74;72.75;101600.44;5025941;28;45305;-67
2022/03/05 02:55:06;;;;;;;;;43.75;36.75;;;;;9.69;73.22;101597.25;5024972;28;44899;-67
2022/03/05 02:57:32;;;;;;;;;48.75;36.75;;;;;9.77;73.19;101602.94;5023848;28;46889;-67
2022/03/05 02:59:57;;;;;;;;;47.00;38.00;;;;;9.67;72.97;101588.34;5024171;28;45842;-67
2022/03/05 03:02:22;;;;;;;;;44.50;35.75;;;;;9.73;73.09;101596.00;5025626;28;45220;-67
2022/03/05 03:04:48;;;;;;;;;45.75;38.00;;;;;9.84;72.75;101598.75;5024616;28;45481;-67
2022/03/05 03:07:13;;;;;;;;;48.00;38.50;;;;;9.84;72.29;101596.03;5025308;28;46253;-68
2022/03/05 03:09:38;;;;;;;;;47.25;36.25;;;;;9.83;72.60;101607.00;5024112;28;45970;-66
2022/03/05 03:12:04;;;;;;;;;47.75;38.25;;;;;9.82;72.51;101598.00;5025262;28;45415;-66
2022/03/05 03:14:29;;;;;;;;;50.25;38.00;;;;;9.90;72.39;101594.66;5024301;28;45311;-65
2022/03/05 03:16:55;;;;;;;;;50.75;38.00;;;;;9.91;72.41;101589.13;5025214;28;45304;-65
2022/03/05 03:19:20;;;;;;;;;52.50;38.00;;;;;9.88;72.42;101596.63;5024963;28;45362;-66
2022/03/05 03:21:46;;;;;;;;;42.00;36.00;;;;;9.91;72.40;101591.84;5023863;28;45351;-65
2022/03/05 03:24:11;;;;;;;;;47.75;38.00;;;;;9.91;71.93;101589.13;5038818;28;45541;-65
2022/03/05 03:26:37;;;;;;;;;53.00;40.00;;;;;9.89;72.17;101596.50;5023360;28;47779;-65
2022/03/05 03:29:02;;;;;;;;;52.75;41.50;;;;;9.83;72.16;101588.88;5023131;28;45355;-65
2022/03/05 03:31:28;;;;;;;;;45.25;36.50;;;;;9.73;72.75;101590.56;5025156;28;45320;-66
2022/03/05 03:33:53;;;;;;;;;49.25;40.00;;;;;9.73;72.97;101596.00;5024044;28;45515;-65
2022/03/05 03:36:18;;;;;;;;;49.75;37.50;;;;;9.69;72.95;101584.53;5023632;28;48142;-67
2022/03/05 03:38:44;;;;;;;;;47.75;37.50;;;;;9.72;72.70;101591.56;5023607;28;45270;-66
2022/03/05 03:41:09;;;;;;;;;40.50;34.25;;;;;9.77;72.75;101602.94;5023460;28;45360;-65
2022/03/05 03:43:34;;;;;;;;;41.25;36.25;;;;;9.74;72.45;101587.75;5025292;28;45346;-66
2022/03/05 03:46:00;;;;;;;;;52.25;39.75;;;;;9.74;72.42;101592.31;5024488;28;46589;-65
2022/03/05 03:48:25;;;;;;;;;42.75;36.50;;;;;9.64;72.74;101594.88;5024825;28;45199;-65
2022/03/05 03:50:51;;;;;;;;;43.50;35.75;;;;;9.71;72.26;101593.44;5024958;28;45640;-65
2022/03/05 03:53:16;;;;;;;;;31.50;30.00;;;;;9.73;72.28;101591.44;5025399;28;45219;-65
2022/03/05 03:55:41;;;;;;;;;45.00;36.25;;;;;9.79;72.17;101594.69;5024414;28;46404;-65
2022/03/05 03:58:07;;;;;;;;;40.00;34.25;;;;;9.77;71.78;101592.94;5024509;28;45237;-65
2022/03/05 04:00:34;;;;;;;;;36.75;30.00;;;;;9.73;72.01;101591.44;5023503;28;45341;-65
2022/03/05 04:02:59;;;;;;;;;48.25;36.25;;;;;9.74;71.50;101603.16;5025099;28;45418;-65
2022/03/05 04:05:25;;;;;;;;;38.00;30.50;;;;;9.74;71.99;101597.72;5024329;28;45997;-68
2022/03/05 04:10:35;;;;;;;;;43.50;36.00;;;;;9.66;71.82;101594.75;5024263;28;45391;-65
2022/03/05 04:13:00;;;;;;;;;38.75;35.00;;;;;9.66;71.80;101601.06;5023386;28;45328;-65
2022/03/05 04:15:26;;;;;;;;;49.50;41.75;;;;;9.59;71.56;101598.94;5022936;28;47992;-65
2022/03/05 04:17:52;;;;;;;;;47.50;37.00;;;;;9.54;72.31;101595.75;5024208;28;45307;-65
2022/03/05 04:20:18;;;;;;;;;39.25;36.25;;;;;9.47;72.11;101595.38;5023328;28;45334;-66
2022/03/05 04:22:43;;;;;;;;;48.00;37.75;;;;;9.42;72.15;101592.16;5039465;28;45505;-65
2022/03/05 04:25:09;;;;;;;;;39.25;32.50;;;;;9.36;72.53;101598.91;5024202;28;46253;-65
2022/03/05 04:27:35;;;;;;;;;43.00;35.50;;;;;9.32;72.91;101592.00;5023635;28;45393;-65
2022/03/05 04:30:00;;;;;;;;;43.25;37.00;;;;;9.30;73.02;101593.97;5024293;28;45158;-65
2022/03/05 04:32:26;;;;;;;;;39.25;37.00;;;;;9.23;72.88;101591.84;5024445;28;45367;-65
2022/03/05 04:34:51;;;;;;;;;46.00;38.75;;;;;9.22;73.16;101593.69;5024197;28;46555;-66
2022/03/05 04:37:16;;;;;;;;;40.00;35.00;;;;;9.21;73.64;101600.09;5022632;28;45211;-65
2022/03/05 04:39:42;;;;;;;;;43.50;34.00;;;;;9.22;73.42;101601.84;5024254;28;45140;-65
2022/03/05 04:42:07;;;;;;;;;36.75;31.50;;;;;9.22;72.88;101603.69;5024108;28;45473;-66
2022/03/05 04:44:33;;;;;;;;;44.00;35.00;;;;;9.23;72.60;101610.84;5022732;28;48312;-65
2022/03/05 04:46:58;;;;;;;;;40.25;33.25;;;;;9.24;73.29;101601.72;5023827;28;45366;-65
2022/03/05 04:49:24;;;;;;;;;46.25;36.75;;;;;9.11;73.41;101593.69;5022764;28;45403;-65
2022/03/05 04:51:50;;;;;;;;;48.75;35.75;;;;;9.12;73.04;101603.53;5039603;28;45255;-66
2022/03/05 04:54:16;;;;;;;;;42.50;34.75;;;;;9.12;73.56;101606.25;5023514;28;45405;-65
2022/03/05 04:56:41;;;;;;;;;37.00;34.50;;;;;9.15;73.34;101606.00;5022295;28;45303;-66
2022/03/05 04:59:07;;;;;;;;;37.00;34.00;;;;;9.17;73.04;101609.47;5023751;28;45395;-64
2022/03/05 05:01:32;;;;;;;;;48.50;34.25;;;;;9.15;73.25;101606.00;5024187;28;45450;-64
2022/03/05 05:03:57;;;;;;;;;45.00;35.25;;;;;9.19;72.80;101601.22;5022197;28;47170;-64
2022/03/05 05:06:24;;;;;;;;;43.50;38.75;;;;;9.14;72.96;101604.28;5023358;28;45308;-65
2022/03/05 05:08:50;;;;;;;;;43.25;34.50;;;;;9.16;72.73;101613.16;5022659;28;45291;-65
2022/03/05 05:11:15;;;;;;;;;43.75;35.50;;;;;9.16;72.84;101615.00;5023697;28;45245;-65
2022/03/05 05:13:41;;;;;;;;;34.00;27.00;;;;;9.13;72.42;101613.38;5022077;28;47961;-65
2022/03/05 05:16:06;;;;;;;;;47.50;37.50;;;;;9.10;72.20;101613.63;5037008;28;45899;-64
2022/03/05 05:18:33;;;;;;;;;41.50;38.00;;;;;9.08;72.48;101622.84;5023623;28;45473;-65
2022/03/05 05:20:59;;;;;;;;;45.50;37.25;;;;;9.02;73.06;101620.63;5023820;28;45231;-65
2022/03/05 05:23:24;;;;;;;;;37.75;35.00;;;;;8.96;73.00;101616.53;5023230;28;46425;-64
2022/03/05 05:25:50;;;;;;;;;44.50;36.25;;;;;8.93;73.34;101619.47;5021459;28;45411;-64
2022/03/05 05:28:15;;;;;;;;;54.00;40.00;;;;;8.98;72.96;101620.84;5023009;28;45442;-65
2022/03/05 05:30:40;;;;;;;;;49.50;39.00;;;;;9.01;73.20;101624.31;5020386;28;45572;-65
2022/03/05 05:33:06;;;;;;;;;43.75;36.75;;;;;8.96;72.85;101621.97;5023144;28;46204;-66
2022/03/05 05:35:31;;;;;;;;;49.25;39.50;;;;;8.95;72.85;101621.09;5023154;28;45311;-65
2022/03/05 05:37:57;;;;;;;;;46.75;36.75;;;;;8.97;72.60;101624.56;5021990;28;45393;-65
2022/03/05 05:40:22;;;;;;;;;46.25;37.75;;;;;8.93;73.07;101623.03;5023344;28;45621;-64
2022/03/05 05:42:48;;;;;;;;;43.75;38.75;;;;;8.92;72.68;101625.88;5023077;28;45386;-65
2022/03/05 05:45:13;;;;;;;;;43.50;38.75;;;;;8.87;73.35;101633.50;5022929;28;45311;-65
2022/03/05 05:47:39;;;;;;;;;51.00;38.25;;;;;8.84;73.67;101640.00;5023216;28;45322;-65
2022/03/05 05:50:06;;;;;;;;;49.25;39.50;;;;;8.82;73.74;101641.13;5022142;28;45497;-65
2022/03/05 05:52:32;;;;;;;;;46.75;39.25;;;;;8.88;72.87;101640.66;5022958;28;45464;-65
2022/03/05 05:54:58;;;;;;;;;37.50;33.25;;;;;8.92;73.28;101637.56;5022749;28;45239;-65
2022/03/05 05:57:24;;;;;;;;;50.25;39.25;;;;;8.91;73.38;101640.44;5022807;28;45323;-65
2022/03/05 05:59:49;;;;;;;;;57.25;39.25;;;;;8.89;72.98;101636.97;5023212;28;45506;-67
2022/03/05 06:02:14;;;;;;;;;38.00;35.25;;;;;8.91;73.35;101645.84;5020739;28;48019;-65
2022/03/05 06:04:40;;;;;;;;;51.00;38.25;;;;;8.88;73.32;101635.22;5022068;28;45433;-64
2022/03/05 06:07:05;;;;;;;;;53.75;41.00;;;;;8.88;73.21;101648.78;5021299;28;45511;-66
2022/03/05 06:09:31;;;;;;;;;44.00;35.75;;;;;8.89;73.15;101651.38;5025172;28;45399;-65
2022/03/05 06:11:56;;;;;;;;;45.00;35.75;;;;;8.87;73.50;101650.63;5022923;28;46950;-65
2022/03/05 06:14:22;;;;;;;;;53.25;39.25;;;;;8.91;73.74;101646.69;5024514;28;45354;-64
2022/03/05 06:16:47;;;;;;;;;55.50;40.25;;;;;8.84;73.14;101636.44;5024603;28;45315;-64
2022/03/05 06:19:13;;;;;;;;;42.25;36.25;;;;;8.86;74.03;101650.72;5025119;28;45240;-64
2022/03/05 06:21:38;;;;;;;;;51.75;38.25;;;;;8.84;73.58;101637.28;5023089;28;47844;-64
2022/03/05 06:24:04;;;;;;;;;54.25;40.75;;;;;8.87;73.54;101644.34;5024469;28;45294;-67
2022/03/05 06:26:31;;;;;;;;;44.25;37.25;;;;;8.85;73.92;101639.03;5024362;28;45515;-65
2022/03/05 06:28:57;;;;;;;;;44.50;36.25;;;;;8.87;73.64;101645.19;5023184;28;45402;-65
2022/03/05 06:31:23;;;;;;;;;51.75;39.00;;;;;8.92;73.51;101640.28;5021796;28;46541;-65
2022/03/05 06:33:48;;;;;;;;;44.25;36.00;;;;;8.96;73.74;101632.81;5024079;28;45451;-65
2022/03/05 06:36:14;;;;;;;;;44.75;38.00;;;;;8.98;73.42;101641.69;5024554;28;45473;-65
2022/03/05 06:38:39;;;;;;;;;44.50;35.25;;;;;9.03;73.01;101650.31;5024583;28;45409;-66
2022/03/05 06:41:05;;;;;;;;;40.75;35.75;;;;;9.06;72.87;101650.06;5022639;28;47528;-66
2022/03/05 06:43:30;;;;;;;;;52.25;38.50;;;;;9.10;73.18;101656.16;5022647;28;45443;-65
2022/03/05 06:45:55;;;;;;;;;53.75;40.00;;;;;9.07;72.79;101659.06;5024122;28;45414;-65
2022/03/05 06:48:21;;;;;;;;;48.75;39.00;;;;;9.03;72.86;101666.59;5023196;28;45469;-65
2022/03/05 06:50:46;;;;;;;;;50.50;39.25;;;;;9.03;72.81;101657.59;5022546;28;47434;-65
2022/03/05 06:53:12;;;;;;;;;51.50;38.75;;;;;9.05;72.65;101659.22;5023861;28;45370;-66
2022/03/05 06:55:37;;;;;;;;;51.25;38.75;;;;;9.08;72.52;101667.09;5022501;28;45559;-65
2022/03/05 06:58:03;;;;;;;;;50.00;38.00;;;;;9.09;72.45;101660.69;5022906;28;45612;-66
2022/03/05 07:00:28;;;;;;;;;42.50;36.00;;;;;9.10;72.19;101673.28;5025539;28;45398;-65
2022/03/05 07:02:54;;;;;;;;;53.75;41.75;;;;;9.11;72.14;101675.00;5025526;28;45302;-65
2022/03/05 07:05:19;;;;;;;;;50.00;40.75;;;;;9.16;72.09;101672.81;5025377;28;45263;-65
2022/03/05 07:07:45;;;;;;;;;51.75;41.00;;;;;9.19;72.13;101669.00;5025162;28;45705;-65
2022/03/05 07:10:11;;;;;;;;;53.75;41.50;;;;;9.23;71.48;101673.19;5024886;28;45698;-65
2022/03/05 07:12:36;;;;;;;;;57.25;42.00;;;;;9.25;71.67;101687.50;5025116;28;45244;-65
2022/03/05 07:15:02;;;;;;;;;61.00;45.25;;;;;9.25;71.29;101682.09;5024453;28;45239;-65
2022/03/05 07:17:28;;;;;;;;;52.75;40.75;;;;;9.26;71.91;101690.13;5024044;28;45258;-65
2022/03/05 07:19:56;;;;;;;;;59.25;44.75;;;;;9.23;71.49;101684.91;5021817;28;46776;-65
2022/03/05 07:22:23;;;;;;;;;53.25;42.50;;;;;9.25;71.41;101687.50;5025086;28;45421;-65
2022/03/05 07:24:49;;;;;;;;;67.50;46.50;;;;;9.21;71.86;101688.72;5025134;28;45292;-65
2022/03/05 07:27:15;;;;;;;;;50.75;41.50;;;;;9.15;71.45;101681.91;5024770;28;45208;-66
2022/03/05 07:29:42;;;;;;;;;54.25;39.00;;;;;9.19;71.36;101696.13;5023472;28;47113;-65
2022/03/05 07:32:07;;;;;;;;;48.25;41.00;;;;;9.17;71.68;101695.38;5024948;28;45414;-67
2022/03/05 07:34:33;;;;;;;;;52.00;40.00;;;;;9.11;71.67;101696.69;5024709;28;45316;-66
2022/03/05 07:36:58;;;;;;;;;50.75;41.00;;;;;9.11;71.85;101702.13;5024583;28;45380;-65
2022/03/05 07:39:24;;;;;;;;;52.75;42.00;;;;;9.08;71.98;101696.91;5022391;28;45631;-66
2022/03/05 07:41:50;;;;;;;;;53.75;41.75;;;;;9.07;71.36;101700.59;5022486;28;45458;-66
2022/03/05 07:44:15;;;;;;;;;60.00;42.25;;;;;9.06;71.67;101701.59;5022834;28;45466;-66
2022/03/05 07:46:41;;;;;;;;;48.25;34.50;;;;;9.05;71.61;101701.72;5021959;28;45541;-66
2022/03/05 07:49:06;;;;;;;;;58.50;42.75;;;;;9.06;71.85;101712.41;5022637;28;46420;-65
2022/03/05 07:51:33;;;;;;;;;59.75;42.50;;;;;9.10;72.35;101713.94;5022831;28;45446;-66
2022/03/05 07:53:59;;;;;;;;;51.50;40.00;;;;;9.10;72.07;101713.94;5023140;28;45252;-65
2022/03/05 07:56:24;;;;;;;;;51.00;42.25;;;;;9.12;72.14;101712.00;5024868;28;45256;-65
2022/03/05 07:58:49;;;;;;;;;58.25;43.25;;;;;9.15;71.69;101719.00;5023067;28;47129;-66
2022/03/05 08:01:15;;;;;;;;;55.25;42.75;;;;;9.15;71.96;101714.44;5024721;28;45270;-65
2022/03/05 08:03:40;;;;;;;;;47.00;40.50;;;;;9.17;71.48;101715.22;5023176;28;45263;-65
2022/03/05 08:06:05;;;;;;;;;51.25;37.25;;;;;9.20;71.88;101725.84;5024807;28;45221;-65
2022/03/05 08:08:31;;;;;;;;;57.50;38.50;;;;;9.16;71.75;101716.19;5022878;28;48247;-65
2022/03/05 08:10:56;;;;;;;;;58.50;45.50;;;;;9.22;71.72;101725.69;5024040;28;45583;-65
2022/03/05 08:13:22;;;;;;;;;48.50;39.75;;;;;9.28;71.77;101720.66;5022972;28;45322;-65
2022/03/05 08:15:48;;;;;;;;;49.00;38.50;;;;;9.34;71.71;101712.09;5024810;28;45315;-66
2022/03/05 08:18:13;;;;;;;;;56.00;40.75;;;;;9.30;71.47;101717.84;5022591;28;47169;-66
2022/03/05 08:20:39;;;;;;;;;51.50;43.50;;;;;9.28;71.95;101725.22;5024297;28;45262;-66
2022/03/05 08:23:04;;;;;;;;;61.25;44.00;;;;;9.14;71.90;101722.69;5023005;28;45350;-66
2022/03/05 08:25:30;;;;;;;;;62.75;46.00;;;;;9.12;72.37;101724.69;5024261;28;45430;-65
2022/03/05 08:27:55;;;;;;;;;56.75;43.75;;;;;9.32;71.84;101718.59;5022340;28;46875;-65
2022/03/05 08:30:21;;;;;;;;;59.75;45.25;;;;;9.34;71.60;101711.22;5023372;28;45319;-67
2022/03/05 08:32:47;;;;;;;;;50.00;42.00;;;;;9.46;71.77;101714.84;5022455;28;45387;-65
2022/03/05 08:35:13;;;;;;;;;53.75;42.75;;;;;9.49;71.18;101717.31;5024513;28;45401;-65
2022/03/05 08:37:40;;;;;;;;;55.75;42.50;;;;;9.55;71.26;101723.13;5022551;28;47283;-68
2022/03/05 08:40:08;;;;;;;;;55.50;44.00;;;;;9.74;70.47;101725.28;5023420;28;45416;-66
2022/03/05 08:42:34;;;;;;;;;52.75;40.50;;;;;9.89;70.25;101717.78;5022361;28;45462;-66
2022/03/05 08:44:59;;;;;;;;;58.00;44.25;;;;;9.97;69.31;101720.78;5022803;28;45432;-66
2022/03/05 08:47:25;;;;;;;;;53.75;42.50;;;;;10.03;69.47;101720.28;5022114;28;47077;-66
2022/03/05 08:49:51;;;;;;;;;52.50;42.25;;;;;10.09;69.06;101717.94;5023977;28;45325;-65
2022/03/05 08:52:16;;;;;;;;;58.75;45.25;;;;;9.96;68.72;101706.34;5023723;28;45353;-66
2022/03/05 08:54:42;;;;;;;;;56.00;43.75;;;;;10.07;68.53;101728.09;5024347;28;45466;-66
2022/03/05 08:57:09;;;;;;;;;53.25;42.50;;;;;10.10;68.65;101732.38;5022875;28;45319;-66
2022/03/05 08:59:35;;;;;;;;;58.50;44.50;;;;;10.21;67.91;101721.59;5023808;28;45367;-66
2022/03/05 09:02:01;;;;;;;;;57.50;45.00;;;;;10.28;67.67;101721.94;5022105;28;45295;-66
2022/03/05 09:04:26;;;;;;;;;55.25;42.00;;;;;10.35;67.78;101734.06;5023689;28;45220;-66
2022/03/05 09:06:53;;;;;;;;;57.75;42.00;;;;;10.41;67.69;101730.84;5022902;28;46570;-66
2022/03/05 09:09:18;;;;;;;;;55.75;43.50;;;;;10.45;67.47;101727.75;5021919;28;45304;-66
2022/03/05 09:11:44;;;;;;;;;58.75;44.50;;;;;10.46;67.09;101720.47;5023122;28;45244;-66
2022/03/05 09:14:09;;;;;;;;;55.50;40.25;;;;;10.50;66.73;101727.38;5023643;28;45312;-66
2022/03/05 09:16:35;;;;;;;;;58.50;44.50;;;;;10.29;67.10;101726.41;5022705;28;45594;-66
2022/03/05 09:19:01;;;;;;;;;57.25;44.25;;;;;10.36;67.20;101730.34;5021818;28;45338;-65
2022/03/05 09:21:26;;;;;;;;;52.00;42.25;;;;;10.42;67.90;101724.44;5023215;28;45263;-66
2022/03/05 09:23:52;;;;;;;;;54.75;44.00;;;;;10.36;67.11;101727.63;5022372;28;45606;-66
2022/03/05 09:26:18;;;;;;;;;57.00;46.25;;;;;10.37;67.71;101726.66;5021378;28;46860;-66
2022/03/05 09:28:44;;;;;;;;;51.25;39.50;;;;;10.56;66.56;101729.59;5022702;28;45291;-66
2022/03/05 09:31:10;;;;;;;;;56.75;45.00;;;;;10.62;66.65;101720.94;5021453;28;45344;-66
2022/03/05 09:33:35;;;;;;;;;57.50;44.50;;;;;10.81;66.58;101729.31;5022021;28;45633;-66
2022/03/05 09:36:00;;;;;;;;;56.00;44.25;;;;;11.07;65.58;101727.16;5022658;28;46263;-66
2022/03/05 09:38:26;;;;;;;;;50.25;40.25;;;;;11.27;65.30;101720.06;5022726;28;45275;-66
2022/03/05 09:40:52;;;;;;;;;62.00;49.75;;;;;11.39;63.82;101732.63;5022502;28;45231;-66
2022/03/05 09:43:18;;;;;;;;;47.25;39.50;;;;;11.51;64.84;101723.44;5028229;28;45558;-66
2022/03/05 09:45:44;;;;;;;;;56.00;43.25;;;;;11.73;64.24;101724.31;5027801;28;46416;-66
2022/03/05 09:48:12;;;;;;;;;59.25;46.25;;;;;11.95;63.98;101724.22;5028170;28;45288;-66
2022/03/05 09:50:37;;;;;;;;;51.00;39.50;;;;;12.05;63.00;101714.25;5041428;28;45326;-66
2022/03/05 09:53:03;;;;;;;;;60.50;45.75;;;;;12.00;61.93;101724.66;5041846;28;46513;-66
2022/03/05 09:55:29;;;;;;;;;62.25;48.00;;;;;11.57;62.53;101712.00;5025302;28;47131;-66
2022/03/05 09:57:55;;;;;;;;;52.25;41.50;;;;;11.42;63.61;101717.91;5016990;28;45264;-66
2022/03/05 10:00:20;;;;;;;;;56.00;44.00;;;;;11.43;63.99;101723.22;5041266;28;45326;-66
2022/03/05 10:02:46;;;;;;;;;56.00;45.00;;;;;11.45;64.71;101720.38;5022020;28;45526;-66
2022/03/05 10:05:19;;;;;;;;;64.25;48.50;;;;;11.58;63.85;101721.91;5029018;28;45711;-66
2022/03/05 10:08:15;;;;;;;;;52.25;40.00;;;;;11.61;62.88;101721.66;5027766;28;45351;-66
2022/03/05 10:10:51;;;;;;;;;54.00;40.25;;;;;11.70;62.96;101725.41;5029160;28;45307;-66
2022/03/05 10:13:17;;;;;;;;;52.00;40.25;;;;;11.70;62.92;101720.84;5029495;28;45219;-66
2022/03/05 10:15:43;;;;;;;;;52.25;39.50;;;;;12.08;63.08;101716.69;5029227;28;45440;-66
2022/03/05 10:18:08;;;;;;;;;54.25;44.00;;;;;12.36;61.50;101718.69;5028789;28;45434;-66
2022/03/05 10:20:41;;;;;;;;;52.75;43.25;;;;;12.48;61.06;101717.63;5027656;28;45227;-66
2022/03/05 10:23:09;;;;;;;;;52.75;43.75;;;;;12.34;60.99;101712.53;5029337;28;45427;-66
2022/03/05 10:25:41;;;;;;;;;46.50;36.75;;;;;12.15;61.34;101720.59;5028567;28;46202;-66
2022/03/05 10:28:12;;;;;;;;;51.75;40.00;;;;;12.31;61.50;101715.53;5028682;28;45400;-66
2022/03/05 10:30:43;;;;;;;;;57.25;45.75;;;;;12.17;61.21;101713.16;5028967;28;45402;-66
2022/03/05 10:33:24;;;;;;;;;54.50;43.00;;;;;12.07;61.82;101712.22;5027824;28;45485;-66
2022/03/05 10:35:50;;;;;;;;;55.00;44.25;;;;;12.10;62.20;101717.41;5028750;28;45472;-66
2022/03/05 10:38:15;;;;;;;;;51.25;42.50;;;;;11.69;63.22;101713.66;5028651;28;45342;-66
2022/03/05 10:40:41;;;;;;;;;52.00;42.75;;;;;11.85;63.14;101712.38;5027855;28;45234;-66
2022/03/05 10:43:07;;;;;;;;;56.25;44.25;;;;;11.75;62.14;101717.78;5029411;28;45378;-67
2022/03/05 10:45:55;;;;;;;;;58.75;42.75;;;;;11.80;62.73;101711.91;5027231;28;48127;-66
2022/03/05 10:48:32;;;;;;;;;57.75;46.75;;;;;11.75;62.29;101712.34;5028592;28;45386;-66
2022/03/05 10:51:04;;;;;;;;;58.50;46.00;;;;;11.42;63.51;101715.16;5028713;28;45428;-66
2022/03/05 10:53:38;;;;;;;;;59.75;44.25;;;;;11.67;63.34;101715.69;5027368;28;45255;-66
2022/03/05 10:56:21;;;;;;;;;60.25;44.25;;;;;11.75;62.58;101716.91;5024727;28;45375;-66
2022/03/05 10:59:00;;;;;;;;;58.75;45.00;;;;;11.75;61.31;101709.59;5023687;28;45274;-66
2022/03/05 11:01:25;;;;;;;;;52.75;43.25;;;;;12.01;61.83;101710.03;5025175;28;45394;-66
2022/03/05 11:03:55;;;;;;;;;52.75;42.75;;;;;12.01;61.31;101704.59;5025579;28;45323;-67
2022/03/05 11:06:22;;;;;;;;;57.75;45.25;;;;;11.92;60.78;101705.41;5024725;28;47012;-66
2022/03/05 11:08:51;;;;;;;;;56.75;43.50;;;;;11.87;59.92;101704.94;5023605;28;45926;-66
2022/03/05 11:11:18;;;;;;;;;55.50;44.25;;;;;12.01;59.51;101712.78;5023422;28;45370;-66
2022/03/05 11:13:44;;;;;;;;;54.75;44.25;;;;;12.20;60.30;101710.16;5023974;28;45330;-69